Time;durP1;ratioP1;P1;durP2;ratioP2;P2;SDS_P1;SDS_P2;PMS_P1;PMS_P2;Temp;Humidity;BMP_temperature;BMP_pressure;BME280_temperature;BME280_humidity;BME280_pressure;Samples;Min_cycle;Max_cycle;Signal;HPM_P1;HPM_P2
2023/01/11 00:00:36;;;;;;;2.13;0.80;;;;;;;3.47;70.39;93294.19;5025714;28;20089;-87
2023/01/11 00:03:03;;;;;;;3.67;1.70;;;;;;;3.51;70.51;93303.09;5026776;28;20041;-87
2023/01/11 00:05:29;;;;;;;1.65;1.08;;;;;;;3.53;70.65;93304.38;5027946;28;20026;-87
2023/01/11 00:07:55;;;;;;;2.72;1.13;;;;;;;3.50;68.83;93297.06;5025924;28;20022;-87
2023/01/11 00:10:23;;;;;;;2.53;0.90;;;;;;;3.34;67.55;93301.72;5027819;28;20425;-87
2023/01/11 00:12:48;;;;;;;2.92;1.27;;;;;;;3.27;69.22;93298.63;5027960;28;20027;-87
2023/01/11 00:15:14;;;;;;;1.33;0.70;;;;;;;3.22;67.06;93299.47;5027543;28;20022;-87
2023/01/11 00:17:40;;;;;;;0.52;0.43;;;;;;;3.10;64.67;93293.03;5024776;28;20030;-87
2023/01/11 00:20:08;;;;;;;1.13;0.38;;;;;;;3.08;65.33;93301.22;5025981;28;20228;-86
2023/01/11 00:22:33;;;;;;;3.15;1.27;;;;;;;3.08;68.50;93305.69;5025107;28;20022;-86
2023/01/11 00:24:59;;;;;;;0.20;0.20;;;;;;;2.98;64.86;93307.34;5025250;28;20022;-86
2023/01/11 00:27:28;;;;;;;0.40;0.40;;;;;;;3.03;64.87;93311.78;5032094;28;20033;-87
2023/01/11 00:29:57;;;;;;;3.72;1.40;;;;;;;2.99;67.41;93314.22;5032167;28;20025;-87
2023/01/11 00:32:26;;;;;;;3.00;1.00;;;;;;;2.97;68.57;93312.91;5031935;28;20025;-86
2023/01/11 00:34:52;;;;;;;2.03;1.05;;;;;;;3.04;68.90;93323.91;5032666;28;20026;-87
2023/01/11 00:37:17;;;;;;;5.10;2.50;;;;;;;3.05;70.65;93322.03;5023653;28;20232;-87
2023/01/11 00:39:43;;;;;;;4.78;2.42;;;;;;;3.12;72.07;93320.66;5024693;28;20036;-87
2023/01/11 00:47:57;;;;;;;4.60;2.38;;;;;;;3.14;73.68;93315.13;5024754;28;20354;-86
2023/01/11 00:50:25;;;;;;;6.55;2.60;;;;;;;3.09;74.23;93330.94;5033900;28;20117;-88
2023/01/11 00:52:51;;;;;;;5.85;2.33;;;;;;;3.06;74.22;93324.41;5035030;28;20022;-87
2023/01/11 00:55:17;;;;;;;5.85;2.97;;;;;;;3.08;74.30;93321.50;5035556;28;20025;-88
2023/01/11 00:57:45;;;;;;;5.13;2.50;;;;;;;3.09;74.41;93310.66;5032586;28;20022;-88
2023/01/11 01:00:14;;;;;;;5.75;2.20;;;;;;;3.09;74.46;93333.59;5030756;28;20030;-88
2023/01/11 01:02:40;;;;;;;5.43;2.17;;;;;;;3.06;74.51;93323.63;5027487;28;20030;-88
2023/01/11 01:05:05;;;;;;;6.50;2.83;;;;;;;3.08;74.67;93332.81;5024662;28;20049;-88
2023/01/11 01:07:31;;;;;;;6.75;3.40;;;;;;;3.06;74.84;93326.25;5024938;28;20325;-88
2023/01/11 01:09:56;;;;;;;7.72;3.40;;;;;;;3.01;75.01;93321.81;5024643;28;20041;-88
2023/01/11 01:15:06;;;;;;;11.50;4.13;;;;;;;2.98;75.49;93325.78;5024856;28;20025;-89
2023/01/11 01:17:32;;;;;;;9.40;4.22;;;;;;;2.96;75.55;93335.81;5024281;28;20093;-85
2023/01/11 01:19:57;;;;;;;10.00;4.55;;;;;;;2.92;75.52;93334.00;5022919;28;20018;-85
2023/01/11 01:22:23;;;;;;;7.78;4.03;;;;;;;2.89;75.73;93340.63;5024080;28;20028;-84
2023/01/11 01:24:48;;;;;;;11.50;4.80;;;;;;;2.85;76.28;93338.81;5024005;28;20749;-84
2023/01/11 01:27:16;;;;;;;8.30;4.13;;;;;;;2.84;76.05;93342.50;5023574;28;20093;-84
2023/01/11 01:29:44;;;;;;;11.30;4.75;;;;;;;2.84;76.12;93342.50;5026044;28;20041;-84
2023/01/11 01:32:09;;;;;;;9.98;4.10;;;;;;;2.80;76.22;93337.00;5026827;28;20417;-84
2023/01/11 01:34:38;;;;;;;9.43;4.88;;;;;;;2.79;76.01;93336.22;5026636;28;20025;-89
2023/01/11 01:37:06;;;;;;;8.98;4.10;;;;;;;2.78;76.20;93342.53;5023999;28;20053;-87
2023/01/11 01:39:32;;;;;;;8.15;4.13;;;;;;;2.69;76.33;93338.19;5023859;28;20026;-87
2023/01/11 01:41:58;;;;;;;8.68;3.83;;;;;;;2.68;76.26;93340.00;5023721;28;20085;-88
2023/01/11 01:44:53;;;;;;;7.15;4.45;;;;;;;2.67;76.44;93356.09;5022358;28;20026;-88
2023/01/11 01:47:23;;;;;;;6.65;3.72;;;;;;;2.63;76.71;93352.44;5023523;28;20296;-87
2023/01/11 01:49:49;;;;;;;6.15;3.55;;;;;;;2.63;76.75;93355.06;5023793;28;20203;-87
2023/01/11 01:52:15;;;;;;;8.80;4.95;;;;;;;2.61;76.61;93353.47;5023624;28;20028;-88
2023/01/11 01:54:45;;;;;;;7.93;4.70;;;;;;;2.59;76.62;93347.72;5023554;28;20068;-88
2023/01/11 01:57:24;;;;;;;8.27;4.47;;;;;;;2.55;76.93;93346.69;5022152;28;20036;-87
2023/01/11 01:59:51;;;;;;;7.93;4.50;;;;;;;2.53;76.82;93340.91;5023741;28;20038;-90
2023/01/11 02:02:19;;;;;;;6.13;4.18;;;;;;;2.52;77.07;93341.97;5024359;28;20021;-89
2023/01/11 02:04:47;;;;;;;7.60;4.32;;;;;;;2.49;77.12;93353.06;5022915;28;20030;-89
2023/01/11 02:07:17;;;;;;;7.85;4.30;;;;;;;2.47;77.33;93355.16;5024179;28;20025;-89
2023/01/11 02:09:55;;;;;;;8.93;4.03;;;;;;;2.48;77.20;93356.72;5024043;28;20024;-90
2023/01/11 02:12:23;;;;;;;9.70;4.32;;;;;;;2.43;77.39;93356.78;5023974;28;20018;-90
2023/01/11 02:14:52;;;;;;;9.90;5.07;;;;;;;2.44;77.54;93363.59;5024047;28;20017;-89
2023/01/11 02:17:17;;;;;;;9.70;4.50;;;;;;;2.41;77.70;93369.41;5023812;28;20335;-88
2023/01/11 02:20:25;;;;;;;7.20;4.50;;;;;;;2.42;77.78;93370.97;5022143;28;20025;-82
2023/01/11 02:23:08;;;;;;;8.43;3.83;;;;;;;2.44;77.88;93371.50;4996206;28;20109;-84
2023/01/11 02:25:58;;;;;;;6.80;3.95;;;;;;;2.39;77.87;93384.69;5023192;28;20048;-84
2023/01/11 02:29:05;;;;;;;8.07;4.68;;;;;;;2.39;77.88;93396.00;5023267;28;20032;-84
2023/01/11 02:31:34;;;;;;;7.45;4.45;;;;;;;2.39;77.77;93403.88;4996329;28;20034;-86
2023/01/11 02:34:08;;;;;;;7.47;4.30;;;;;;;2.42;77.90;93405.16;5023091;28;20048;-86
2023/01/11 02:36:54;;;;;;;7.32;4.07;;;;;;;2.39;77.96;93406.50;5023060;28;20057;-86
2023/01/11 02:39:47;;;;;;;6.72;4.40;;;;;;;2.41;78.20;93407.03;5023010;28;20038;-87
2023/01/11 02:45:49;;;;;;;7.70;4.68;;;;;;;2.40;78.15;93423.88;5022779;28;20129;-87
2023/01/11 02:48:29;;;;;;;9.55;4.43;;;;;;;2.45;78.21;93415.16;5023015;28;20041;-87
2023/01/11 02:51:06;;;;;;;10.65;3.95;;;;;;;2.47;78.17;93428.06;5023355;28;20030;-87
2023/01/11 02:54:04;;;;;;;8.50;4.13;;;;;;;2.50;78.17;93427.50;5022980;28;20036;-87
2023/01/11 02:56:35;;;;;;;6.45;4.03;;;;;;;2.48;78.23;93425.13;5023238;28;20036;-85
2023/01/11 02:59:03;;;;;;;6.78;3.83;;;;;;;2.52;78.12;93430.63;5026698;28;20029;-85
2023/01/11 03:01:28;;;;;;;6.82;3.90;;;;;;;2.57;77.99;93423.50;5025580;28;20032;-86
2023/01/11 03:03:54;;;;;;;5.95;3.58;;;;;;;2.62;77.53;93430.56;5027632;28;20025;-85
2023/01/11 03:06:27;;;;;;;5.90;3.45;;;;;;;2.60;77.68;93428.19;5027347;28;20383;-87
2023/01/11 03:09:07;;;;;;;6.72;3.88;;;;;;;2.65;77.64;93426.63;5026685;28;20316;-82
2023/01/11 03:15:06;;;;;;;6.53;3.80;;;;;;;2.60;77.26;93420.31;5006384;28;20076;-82
2023/01/11 03:18:00;;;;;;;7.43;3.80;;;;;;;2.61;77.46;93419.25;5025145;28;20025;-82
2023/01/11 03:20:40;;;;;;;6.25;3.53;;;;;;;2.61;77.18;93426.38;5026354;28;20026;-82
2023/01/11 03:23:20;;;;;;;5.32;3.25;;;;;;;2.64;76.87;93417.16;5025092;28;20029;-82
2023/01/11 03:25:49;;;;;;;6.25;3.65;;;;;;;2.67;77.26;93421.88;5026233;28;20022;-82
2023/01/11 03:28:33;;;;;;;6.93;3.92;;;;;;;2.70;77.18;93421.31;5025058;28;20026;-81
2023/01/11 03:31:14;;;;;;;10.77;6.10;;;;;;;2.75;76.95;93418.66;5026298;28;20021;-81
2023/01/11 03:34:06;;;;;;;8.90;4.50;;;;;;;2.75;77.08;93406.28;5027270;28;20027;-85
2023/01/11 03:36:43;;;;;;;9.43;4.20;;;;;;;2.76;76.82;93417.59;5029252;28;20263;-86
2023/01/11 03:39:15;;;;;;;7.35;3.60;;;;;;;2.73;76.66;93410.25;5026352;28;20271;-85
2023/01/11 03:41:42;;;;;;;6.97;4.18;;;;;;;2.72;76.64;93424.44;5025953;28;20049;-85
2023/01/11 03:44:11;;;;;;;6.72;3.80;;;;;;;2.68;76.56;93412.91;5025992;28;20064;-85
2023/01/11 03:46:47;;;;;;;6.28;3.63;;;;;;;2.67;76.53;93421.88;5024662;28;20233;-86
2023/01/11 03:49:19;;;;;;;7.20;3.75;;;;;;;2.58;76.74;93424.28;5024493;28;20086;-86
2023/01/11 03:51:46;;;;;;;6.40;4.00;;;;;;;2.51;76.97;93431.72;5025745;28;20022;-85
2023/01/11 03:54:22;;;;;;;8.15;4.22;;;;;;;2.40;77.37;93429.13;5024491;28;20026;-85
2023/01/11 03:57:09;;;;;;;6.13;3.65;;;;;;;2.30;78.09;93438.91;5025450;28;20017;-86
2023/01/11 03:59:35;;;;;;;8.85;3.75;;;;;;;2.30;78.04;93441.53;5024510;28;20084;-87
2023/01/11 04:02:01;;;;;;;5.55;3.90;;;;;;;2.23;78.34;93439.22;5025696;28;20017;-86
2023/01/11 04:04:26;;;;;;;9.20;5.13;;;;;;;2.17;78.49;93435.81;5025467;28;20025;-87
2023/01/11 04:06:52;;;;;;;7.80;4.40;;;;;;;2.16;78.72;93442.16;5025528;28;20036;-85
2023/01/11 04:09:17;;;;;;;9.50;4.47;;;;;;;2.11;78.71;93444.00;5025355;28;20316;-86
2023/01/11 04:11:43;;;;;;;8.32;5.30;;;;;;;1.97;79.53;93447.22;5024240;28;20021;-86
2023/01/11 04:14:09;;;;;;;8.93;4.97;;;;;;;1.87;80.27;93449.09;5025089;28;20132;-86
2023/01/11 04:16:34;;;;;;;11.40;6.63;;;;;;;1.80;80.58;93441.50;5025259;28;20051;-85
2023/01/11 04:19:01;;;;;;;12.82;6.40;;;;;;;1.66;81.06;93453.63;5025761;28;20020;-86
2023/01/11 04:21:27;;;;;;;11.63;6.47;;;;;;;1.59;81.70;93459.97;5025248;28;20025;-86
2023/01/11 04:23:53;;;;;;;12.07;6.18;;;;;;;1.55;82.02;93473.91;5024863;28;20244;-86
2023/01/11 04:26:19;;;;;;;8.60;4.70;;;;;;;1.52;81.99;93466.53;5025287;28;20233;-87
2023/01/11 04:28:44;;;;;;;8.50;4.82;;;;;;;1.45;81.94;93469.44;5025073;28;20026;-87
2023/01/11 04:31:10;;;;;;;10.35;4.90;;;;;;;1.41;82.05;93465.78;5023866;28;20046;-87
2023/01/11 04:33:35;;;;;;;7.50;3.25;;;;;;;1.45;81.74;93477.31;5025000;28;20029;-86
2023/01/11 04:36:06;;;;;;;7.10;4.00;;;;;;;1.50;81.47;93479.16;5024797;28;20046;-87
2023/01/11 04:38:32;;;;;;;4.68;2.70;;;;;;;1.36;81.25;93487.59;5023686;28;20076;-87
2023/01/11 04:43:56;;;;;;;3.65;1.70;;;;;;;1.43;80.97;93479.41;5013188;28;20030;-88
2023/01/11 04:46:24;;;;;;;2.75;1.70;;;;;;;1.43;80.96;93483.91;5024779;28;20024;-85
2023/01/11 04:48:50;;;;;;;3.35;1.70;;;;;;;1.43;81.03;93489.94;5024543;28;20029;-85
2023/01/11 04:51:15;;;;;;;4.30;1.80;;;;;;;1.46;81.13;93499.88;5023543;28;20021;-85
2023/01/11 04:53:41;;;;;;;4.57;1.80;;;;;;;1.50;80.82;93497.53;5024509;28;20021;-85
2023/01/11 04:56:08;;;;;;;2.90;1.70;;;;;;;1.55;81.07;93492.28;5023451;28;20205;-85
2023/01/11 04:58:34;;;;;;;3.30;1.90;;;;;;;1.56;80.93;93504.34;5024459;28;20018;-88
2023/01/11 05:01:00;;;;;;;2.63;1.35;;;;;;;1.55;80.72;93498.31;5023406;28;20189;-87
2023/01/11 05:03:26;;;;;;;3.15;1.50;;;;;;;1.53;80.63;93494.38;5024697;28;20044;-87
2023/01/11 05:05:59;;;;;;;2.65;1.10;;;;;;;1.50;80.83;93505.41;5024413;28;20342;-88
2023/01/11 05:08:26;;;;;;;2.88;1.70;;;;;;;1.52;80.81;93505.94;5024355;28;20263;-85
2023/01/11 05:10:56;;;;;;;2.53;1.52;;;;;;;1.54;81.21;93506.44;5024248;28;20089;-85
2023/01/11 05:13:40;;;;;;;3.30;1.38;;;;;;;1.54;81.00;93506.44;5024207;28;20030;-85
2023/01/11 05:16:07;;;;;;;6.15;1.80;;;;;;;1.61;81.27;93517.50;5024156;28;20022;-85
2023/01/11 05:18:33;;;;;;;4.70;1.80;;;;;;;1.65;80.98;93518.53;5024325;28;20022;-86
2023/01/11 05:20:58;;;;;;;4.15;2.03;;;;;;;1.74;80.70;93524.81;5023676;28;20370;-85
2023/01/11 05:23:24;;;;;;;4.72;2.33;;;;;;;1.74;80.38;93522.19;5023827;28;20026;-85
2023/01/11 05:25:49;;;;;;;4.20;2.10;;;;;;;1.70;80.39;93522.97;5023956;28;20025;-85
2023/01/11 05:28:14;;;;;;;4.05;1.75;;;;;;;1.63;80.51;93523.28;5023948;28;20088;-85
2023/01/11 05:30:40;;;;;;;4.63;2.13;;;;;;;1.66;80.78;93527.97;5023760;28;20208;-85
2023/01/11 05:33:05;;;;;;;5.55;1.70;;;;;;;1.68;80.65;93518.00;5023607;28;20041;-84
2023/01/11 05:35:31;;;;;;;4.80;2.40;;;;;;;1.67;80.86;93526.13;5023796;28;20320;-86
2023/01/11 05:37:56;;;;;;;3.90;2.05;;;;;;;1.68;80.58;93525.88;5023771;28;20053;-86
2023/01/11 05:40:22;;;;;;;4.93;2.53;;;;;;;1.67;80.60;93526.13;5022369;28;20041;-86
2023/01/11 05:42:47;;;;;;;3.35;1.92;;;;;;;1.67;80.95;93518.25;5023478;28;20030;-86
2023/01/11 05:45:28;;;;;;;6.57;3.25;;;;;;;1.72;81.18;93526.13;5022538;28;20037;-86
2023/01/11 05:47:53;;;;;;;8.10;3.63;;;;;;;1.74;81.21;93527.44;5023553;28;20025;-86
2023/01/11 05:50:19;;;;;;;7.72;3.92;;;;;;;1.78;81.05;93544.25;5023471;28;20075;-88
2023/01/11 05:52:47;;;;;;;7.45;4.07;;;;;;;1.77;80.84;93540.06;5022446;28;20107;-85
2023/01/11 05:55:12;;;;;;;7.00;3.90;;;;;;;1.75;80.69;93539.53;5021789;28;20022;-80
2023/01/11 05:57:42;;;;;;;9.00;3.78;;;;;;;1.75;80.79;93549.25;5023249;28;20271;-85
2023/01/11 06:00:09;;;;;;;6.05;3.38;;;;;;;1.74;80.87;93537.94;5022976;28;20026;-84
2023/01/11 06:02:34;;;;;;;10.90;3.83;;;;;;;1.76;81.02;93548.19;5023016;28;20021;-81
2023/01/11 06:05:00;;;;;;;7.47;3.25;;;;;;;1.77;80.83;93541.88;5023069;28;20024;-83
2023/01/11 06:07:25;;;;;;;7.30;4.22;;;;;;;1.79;80.79;93550.28;5023506;28;20090;-82
2023/01/11 06:09:51;;;;;;;8.38;3.92;;;;;;;1.85;80.56;93551.06;5023164;28;20018;-82
2023/01/11 06:12:16;;;;;;;7.28;3.78;;;;;;;1.85;80.67;93554.47;5023363;28;20205;-82
2023/01/11 06:14:42;;;;;;;9.48;4.13;;;;;;;1.87;80.13;93568.13;5022030;28;20312;-81
2023/01/11 06:17:07;;;;;;;7.78;3.75;;;;;;;1.89;80.30;93565.25;5023130;28;20025;-82
2023/01/11 06:19:33;;;;;;;8.73;4.43;;;;;;;1.89;79.90;93575.75;5021823;28;20033;-83
2023/01/11 06:21:58;;;;;;;8.18;3.75;;;;;;;1.94;79.75;93578.41;5023486;28;20022;-82
2023/01/11 06:24:24;;;;;;;14.10;6.45;;;;;;;1.98;79.66;93584.69;5023437;28;20022;-89
2023/01/11 06:26:53;;;;;;;13.95;6.13;;;;;;;2.00;79.60;93580.75;5023835;28;20044;-90
2023/01/11 06:29:19;;;;;;;11.13;4.60;;;;;;;2.03;79.65;93582.03;5023685;28;20036;-90
2023/01/11 06:31:44;;;;;;;7.40;4.20;;;;;;;2.06;79.63;93594.69;5024166;28;20025;-88
2023/01/11 06:34:10;;;;;;;7.85;4.47;;;;;;;2.11;80.14;93597.28;5027250;28;20017;-85
2023/01/11 06:36:37;;;;;;;10.27;4.93;;;;;;;2.16;79.72;93605.16;5027003;28;20042;-86
2023/01/11 06:39:02;;;;;;;8.95;4.63;;;;;;;2.24;79.33;93608.28;5025580;28;20029;-83
2023/01/11 06:41:28;;;;;;;20.88;6.75;;;;;;;2.33;78.89;93601.44;5027171;28;20048;-83
2023/01/11 06:43:53;;;;;;;15.27;7.07;;;;;;;2.42;78.56;93597.19;5026877;28;20085;-83
2023/01/11 06:46:19;;;;;;;11.32;5.78;;;;;;;2.49;77.99;93594.31;5026844;28;20096;-83
2023/01/11 06:48:45;;;;;;;10.65;4.95;;;;;;;2.51;77.54;93595.59;5026609;28;20121;-82
2023/01/11 06:51:12;;;;;;;13.43;5.25;;;;;;;2.58;77.20;93597.94;5025679;28;20018;-84
2023/01/11 06:53:38;;;;;;;13.38;5.72;;;;;;;2.60;76.50;93607.13;5026542;28;20224;-82
2023/01/11 06:56:04;;;;;;;10.20;4.32;;;;;;;2.56;75.88;93605.31;5026419;28;20244;-83
2023/01/11 06:58:30;;;;;;;6.75;3.28;;;;;;;2.56;75.64;93613.97;5026140;28;20033;-82
2023/01/11 07:00:56;;;;;;;6.88;3.17;;;;;;;2.61;76.22;93624.50;5026190;28;20342;-73
2023/01/11 07:03:23;;;;;;;6.95;3.72;;;;;;;2.67;76.75;93622.66;5025856;28;20025;-72
2023/01/11 07:05:49;;;;;;;8.30;3.10;;;;;;;2.77;77.36;93619.97;5025922;28;20067;-73
2023/01/11 07:08:14;;;;;;;6.13;2.45;;;;;;;2.91;74.82;93633.34;5025749;28;20025;-82
2023/01/11 07:10:41;;;;;;;5.28;1.90;;;;;;;2.95;72.74;93642.28;5026041;28;20018;-81
2023/01/11 07:13:06;;;;;;;3.05;1.42;;;;;;;2.94;72.41;93640.69;5026185;28;20022;-80
2023/01/11 07:15:32;;;;;;;3.97;1.80;;;;;;;2.89;72.56;93646.00;5026493;28;20045;-85
2023/01/11 07:17:58;;;;;;;3.85;1.70;;;;;;;2.94;72.75;93643.31;5026062;28;20022;-85
2023/01/11 07:20:27;;;;;;;4.97;2.63;;;;;;;3.03;72.80;93651.44;5025707;28;20026;-88
2023/01/11 07:22:58;;;;;;;5.43;2.33;;;;;;;3.09;73.02;93654.84;5025953;28;20033;-78
2023/01/11 07:25:24;;;;;;;3.72;1.98;;;;;;;3.18;72.67;93654.00;5025922;28;20034;-77
2023/01/11 07:28:04;;;;;;;5.90;2.35;;;;;;;3.26;72.29;93650.03;5024459;28;20037;-77
2023/01/11 07:30:32;;;;;;;6.18;2.20;;;;;;;3.31;72.09;93649.97;5024978;28;20025;-78
2023/01/11 07:32:59;;;;;;;5.03;2.33;;;;;;;3.44;71.67;93658.34;5024963;28;20327;-78
2023/01/11 07:35:47;;;;;;;3.15;1.80;;;;;;;3.51;71.38;93651.72;5025253;28;20098;-78
2023/01/11 07:38:32;;;;;;;4.15;1.92;;;;;;;3.61;70.38;93664.03;4986450;28;20034;-78
2023/01/11 07:40:57;;;;;;;4.25;2.03;;;;;;;3.65;69.71;93667.69;4986418;28;20078;-76
2023/01/11 07:43:22;;;;;;;4.68;1.90;;;;;;;3.67;70.14;93667.44;4985630;28;20026;-80
2023/01/11 07:45:50;;;;;;;2.97;1.65;;;;;;;3.73;69.69;93659.22;4986389;28;20054;-80
2023/01/11 07:48:23;;;;;;;2.90;1.42;;;;;;;3.71;69.81;93661.34;4985704;28;20022;-80
2023/01/11 07:50:49;;;;;;;3.03;1.55;;;;;;;3.66;69.29;93665.84;4985082;28;20018;-79
2023/01/11 07:53:15;;;;;;;3.85;1.75;;;;;;;3.53;69.79;93680.44;4986152;28;20033;-79
2023/01/11 07:55:41;;;;;;;5.32;2.22;;;;;;;3.50;69.75;93676.50;4985341;28;20143;-79
2023/01/11 07:58:11;;;;;;;3.78;1.90;;;;;;;3.40;70.21;93672.06;4986082;28;20026;-80
2023/01/11 08:00:36;;;;;;;5.57;2.10;;;;;;;3.36;69.94;93683.44;4984704;28;20034;-80
2023/01/11 08:03:02;;;;;;;4.47;1.88;;;;;;;3.28;70.72;93695.31;4983125;28;20030;-80
2023/01/11 08:05:28;;;;;;;4.00;1.48;;;;;;;3.16;70.36;93689.59;4984627;28;20332;-80
2023/01/11 08:07:53;;;;;;;3.00;1.70;;;;;;;3.21;70.88;93694.81;4984689;28;20027;-80
2023/01/11 08:10:19;;;;;;;4.25;1.92;;;;;;;3.18;70.62;93701.41;4984873;28;20053;-80
2023/01/11 08:15:30;;;;;;;2.67;1.10;;;;;;;3.04;69.99;93712.81;4985222;28;20094;-80
2023/01/11 08:17:56;;;;;;;2.13;1.38;;;;;;;3.03;70.08;93724.38;4984876;28;20030;-80
2023/01/11 08:20:22;;;;;;;1.90;1.27;;;;;;;2.99;70.85;93719.66;4985678;28;20263;-81
2023/01/11 08:22:47;;;;;;;2.75;1.30;;;;;;;3.01;70.60;93725.47;4985781;28;20027;-81
2023/01/11 08:25:13;;;;;;;2.65;1.20;;;;;;;2.99;71.21;93726.75;4985661;28;20316;-81
2023/01/11 08:27:39;;;;;;;3.50;1.27;;;;;;;2.97;71.23;93734.13;4985739;28;20313;-81
2023/01/11 08:30:05;;;;;;;3.45;1.52;;;;;;;2.97;71.54;93742.03;4985739;28;20022;-81
2023/01/11 08:32:30;;;;;;;7.03;1.77;;;;;;;3.09;71.90;93744.38;4985706;28;20052;-81
2023/01/11 08:34:56;;;;;;;5.13;1.77;;;;;;;3.05;70.66;93745.97;4985800;28;20033;-81
2023/01/11 08:37:21;;;;;;;5.88;1.70;;;;;;;3.11;71.99;93747.53;5010887;28;20086;-81
2023/01/11 08:39:47;;;;;;;5.50;1.83;;;;;;;3.16;70.94;93744.88;5024499;28;20046;-81
2023/01/11 08:42:13;;;;;;;3.80;2.00;;;;;;;3.14;70.74;93749.63;5024826;28;20022;-81
2023/01/11 08:44:38;;;;;;;4.63;2.00;;;;;;;3.19;71.28;93757.50;5024681;28;20255;-81
2023/01/11 08:47:04;;;;;;;3.65;1.65;;;;;;;3.33;70.81;93757.72;5024580;28;20060;-81
2023/01/11 08:49:30;;;;;;;2.55;1.15;;;;;;;3.29;70.45;93757.47;5024322;28;20025;-81
2023/01/11 08:51:55;;;;;;;4.85;1.85;;;;;;;3.27;69.80;93758.81;5024624;28;20093;-81
2023/01/11 08:54:20;;;;;;;3.08;1.45;;;;;;;3.18;69.95;93759.34;5022242;28;20029;-81
2023/01/11 08:56:46;;;;;;;2.58;1.13;;;;;;;3.25;69.26;93771.47;5024345;28;20021;-80
2023/01/11 08:59:12;;;;;;;3.42;1.05;;;;;;;3.15;69.02;93764.38;5024137;28;20357;-81
2023/01/11 09:01:37;;;;;;;2.70;1.55;;;;;;;3.07;69.92;93783.34;5022981;28;20112;-81
2023/01/11 09:04:03;;;;;;;1.67;0.90;;;;;;;2.91;70.40;93774.69;5024147;28;20088;-81
2023/01/11 09:06:29;;;;;;;3.17;1.00;;;;;;;2.96;70.15;93772.84;5024091;28;20025;-81
2023/01/11 09:08:54;;;;;;;4.25;1.60;;;;;;;3.04;70.76;93779.41;5023102;28;20307;-81
2023/01/11 09:14:04;;;;;;;7.88;1.60;;;;;;;3.16;69.99;93781.75;5023853;28;20097;-81
2023/01/11 09:16:29;;;;;;;5.18;1.67;;;;;;;3.21;69.95;93777.25;5023746;28;20022;-81
2023/01/11 09:18:55;;;;;;;3.38;1.45;;;;;;;3.30;70.16;93777.50;5023862;28;20052;-81
2023/01/11 09:21:21;;;;;;;1.98;1.15;;;;;;;3.25;70.03;93772.25;5023674;28;20029;-81
2023/01/11 09:23:46;;;;;;;2.55;1.23;;;;;;;3.27;69.23;93771.97;5022631;28;20320;-81
2023/01/11 09:26:12;;;;;;;2.90;1.42;;;;;;;3.19;69.78;93770.69;5023689;28;20025;-81
2023/01/11 09:28:39;;;;;;;5.57;1.50;;;;;;;3.19;70.01;93775.94;5023743;28;20022;-81
2023/01/11 09:31:05;;;;;;;17.33;4.50;;;;;;;3.23;70.56;93774.34;5023454;28;20077;-81
2023/01/11 09:33:30;;;;;;;6.15;2.30;;;;;;;3.32;69.93;93780.66;5023749;28;20026;-81
2023/01/11 09:35:57;;;;;;;4.30;1.90;;;;;;;3.41;69.77;93773.75;5023650;28;20265;-81
2023/01/11 09:38:29;;;;;;;4.13;1.98;;;;;;;3.45;69.19;93778.50;5023461;28;20220;-81
2023/01/11 09:41:03;;;;;;;4.03;1.52;;;;;;;3.54;70.14;93777.66;5022350;28;20212;-81
2023/01/11 09:43:30;;;;;;;3.50;1.17;;;;;;;3.58;68.03;93781.34;5023512;28;20030;-81
2023/01/11 09:46:03;;;;;;;3.53;1.88;;;;;;;3.56;68.78;93780.81;5023486;28;20083;-81
2023/01/11 09:48:44;;;;;;;3.63;1.88;;;;;;;3.64;68.99;93782.09;5023501;28;20018;-81
2023/01/11 09:51:14;;;;;;;3.75;1.70;;;;;;;3.62;69.50;93781.56;5022118;28;20188;-81
2023/01/11 09:53:44;;;;;;;22.08;6.95;;;;;;;3.54;69.47;93772.41;5023103;28;20022;-81
2023/01/11 09:56:15;;;;;;;22.83;10.02;;;;;;;3.54;68.95;93784.78;5023163;28;20362;-81
2023/01/11 09:58:49;;;;;;;8.02;3.72;;;;;;;3.60;69.03;93781.84;5023166;28;20030;-81
2023/01/11 10:01:30;;;;;;;6.90;3.13;;;;;;;3.53;68.63;93781.34;5023027;28;20033;-81
2023/01/11 10:04:10;;;;;;;7.45;3.00;;;;;;;3.36;69.33;93781.69;5022018;28;20100;-80
2023/01/11 10:06:50;;;;;;;18.48;5.63;;;;;;;3.40;70.22;93792.50;5023094;28;20117;-80
2023/01/11 10:09:40;;;;;;;11.60;5.10;;;;;;;3.42;69.53;93787.75;5023225;28;20032;-81
2023/01/11 10:12:20;;;;;;;19.65;4.68;;;;;;;3.48;67.64;93785.84;5022951;28;20022;-80
2023/01/11 10:14:57;;;;;;;5.95;2.00;;;;;;;3.52;66.74;93792.97;5022978;28;20100;-81
2023/01/11 10:17:49;;;;;;;42.53;9.10;;;;;;;3.48;66.35;93788.47;5022921;28;20030;-80
2023/01/11 10:20:26;;;;;;;30.42;7.35;;;;;;;3.51;66.94;93793.22;5022788;28;20030;-80
2023/01/11 10:23:03;;;;;;;12.05;3.92;;;;;;;3.55;67.32;93794.25;5022859;28;20256;-81
2023/01/11 10:25:39;;;;;;;6.97;2.90;;;;;;;3.63;66.78;93795.56;5022988;28;20029;-80
2023/01/11 10:28:18;;;;;;;11.45;3.33;;;;;;;3.73;66.93;93784.97;5022966;28;20235;-81
2023/01/11 10:34:19;;;;;;;4.60;1.98;;;;;;;3.96;65.57;93771.09;5022742;28;20046;-81
2023/01/11 10:42:21;;;;;;;10.90;3.88;;;;;;;3.94;64.47;93777.72;5022806;28;20029;-81
2023/01/11 10:44:59;;;;;;;10.65;3.92;;;;;;;3.85;63.37;93771.44;5022833;28;20270;-80
2023/01/11 10:47:31;;;;;;;6.93;2.00;;;;;;;3.85;62.97;93772.25;5022654;28;20133;-81
2023/01/11 10:50:23;;;;;;;15.85;5.18;;;;;;;3.87;64.64;93766.66;5021469;28;20014;-81
2023/01/11 10:53:15;;;;;;;5.18;2.13;;;;;;;3.91;63.63;93771.16;5022694;28;20224;-80
2023/01/11 10:55:51;;;;;;;6.90;1.95;;;;;;;3.91;64.21;93770.34;5022427;28;20022;-81
2023/01/11 10:58:29;;;;;;;5.97;2.25;;;;;;;3.94;63.73;93767.16;5022419;28;20018;-81
2023/01/11 11:01:11;;;;;;;8.25;3.75;;;;;;;3.91;62.75;93765.06;5022379;28;20044;-80
2023/01/11 11:04:01;;;;;;;44.40;16.17;;;;;;;3.92;63.90;93771.94;5022530;28;20209;-81
2023/01/11 11:06:38;;;;;;;12.52;4.88;;;;;;;4.00;63.73;93766.84;5022580;28;20030;-81
2023/01/11 11:09:23;;;;;;;7.20;2.60;;;;;;;3.99;63.75;93775.84;5021106;28;20025;-81
2023/01/11 11:12:02;;;;;;;19.77;5.70;;;;;;;3.94;64.33;93767.16;5021031;28;20184;-80
2023/01/11 11:14:58;;;;;;;9.05;2.80;;;;;;;3.89;64.90;93761.91;5022706;28;20021;-81
2023/01/11 11:17:24;;;;;;;3.58;1.75;;;;;;;3.95;65.57;93760.84;5022349;28;20220;-81
2023/01/11 11:19:51;;;;;;;3.10;1.63;;;;;;;3.98;65.58;93763.72;5026045;28;20034;-81
2023/01/11 11:22:18;;;;;;;3.47;1.60;;;;;;;4.05;65.20;93770.53;5026024;28;20045;-81
2023/01/11 11:25:21;;;;;;;2.97;1.63;;;;;;;4.06;64.87;93766.84;5024770;28;20201;-81
2023/01/11 11:27:50;;;;;;;3.00;1.27;;;;;;;4.13;64.38;93765.47;4983541;28;20044;-81
2023/01/11 11:30:37;;;;;;;3.42;1.85;;;;;;;4.07;64.13;93761.28;5025665;28;20310;-81
2023/01/11 11:33:15;;;;;;;2.83;1.67;;;;;;;3.99;63.64;93767.16;5025888;28;20025;-81
2023/01/11 11:35:45;;;;;;;2.53;1.70;;;;;;;3.97;64.88;93774.53;5024524;28;20026;-81
2023/01/11 11:38:41;;;;;;;7.93;2.03;;;;;;;4.04;64.56;93772.38;5025625;28;20052;-81
2023/01/11 11:41:11;;;;;;;5.03;1.73;;;;;;;4.07;64.33;93774.47;5009448;28;20174;-81
2023/01/11 11:43:39;;;;;;;3.70;1.77;;;;;;;4.18;64.55;93777.84;5025607;28;20029;-81
2023/01/11 11:46:22;;;;;;;2.33;1.40;;;;;;;4.07;62.66;93779.75;5025570;28;20032;-81
2023/01/11 11:49:23;;;;;;;4.10;1.73;;;;;;;4.10;64.36;93787.09;5024455;28;20045;-81
2023/01/11 11:51:50;;;;;;;3.25;1.65;;;;;;;4.07;64.63;93782.41;4946078;29;20054;-81
2023/01/11 11:54:24;;;;;;;3.85;1.65;;;;;;;4.12;63.63;93782.34;5004920;28;20061;-81
2023/01/11 11:56:51;;;;;;;6.47;1.85;;;;;;;4.17;63.55;93784.97;5025362;28;20046;-81
2023/01/11 11:59:21;;;;;;;6.25;1.38;;;;;;;4.29;62.72;93791.72;5025292;28;20245;-81
2023/01/11 12:02:08;;;;;;;12.32;3.70;;;;;;;4.29;61.78;93797.78;5024251;28;20336;-81
2023/01/11 12:04:46;;;;;;;3.38;1.75;;;;;;;4.32;61.18;93793.84;5024738;28;20274;-81
2023/01/11 12:07:28;;;;;;;8.82;1.88;;;;;;;4.22;62.56;93790.19;5025109;28;20030;-81
2023/01/11 12:10:01;;;;;;;2.42;1.10;;;;;;;4.16;62.94;93793.94;5025142;28;20014;-81
2023/01/11 12:12:26;;;;;;;3.33;1.52;;;;;;;4.18;63.70;93788.38;5025218;28;20022;-81
2023/01/11 12:15:31;;;;;;;5.07;2.08;;;;;;;4.27;63.97;93793.84;5025337;28;20064;-81
2023/01/11 12:18:26;;;;;;;3.35;2.00;;;;;;;4.36;63.53;93792.22;5021108;28;20059;-81
2023/01/11 12:20:52;;;;;;;5.75;2.05;;;;;;;4.33;62.13;93800.66;5024948;28;20025;-81
2023/01/11 12:23:25;;;;;;;4.03;1.90;;;;;;;4.27;62.22;93792.00;5025178;28;20060;-81
2023/01/11 12:26:18;;;;;;;2.70;1.40;;;;;;;4.19;62.67;93805.78;5024858;28;20022;-81
2023/01/11 12:29:32;;;;;;;2.45;1.30;;;;;;;4.01;62.91;93796.69;5024404;28;20220;-81
2023/01/11 12:32:22;;;;;;;3.00;1.70;;;;;;;3.96;62.01;93810.66;4938989;28;20214;-81